createdAt,value
2022-08-28T05:05:38.763Z,13.02
2022-08-28T05:10:32.750Z,13.32
2022-08-28T05:12:59.787Z,13.40
2022-08-28T05:15:26.816Z,12.88
2022-08-28T05:17:53.786Z,14.02
2022-08-28T05:20:21.194Z,13.40
2022-08-28T05:22:48.226Z,13.13
2022-08-28T05:25:15.694Z,13.95
2022-08-28T05:27:42.710Z,14.45
2022-08-28T05:30:10.779Z,15.38
2022-08-28T05:32:38.012Z,15.02
2022-08-28T05:35:05.510Z,16.83
2022-08-28T05:37:32.557Z,16.40
2022-08-28T05:40:00.357Z,16.25
2022-08-28T05:42:30.978Z,15.30
2022-08-28T05:44:59.695Z,15.68
2022-08-28T05:47:26.685Z,15.87
2022-08-28T05:49:53.751Z,15.07
2022-08-28T05:52:20.834Z,16.98
2022-08-28T05:54:48.189Z,18.08
2022-08-28T05:57:15.170Z,19.58
2022-08-28T05:59:42.436Z,18.20
2022-08-28T06:02:09.693Z,17.15
2022-08-28T06:04:40.416Z,17.40
2022-08-28T06:07:08.307Z,18.95
2022-08-28T06:09:35.368Z,17.45
2022-08-28T06:12:02.987Z,17.60
2022-08-28T06:14:30.115Z,17.88
2022-08-28T06:16:57.351Z,16.35
2022-08-28T06:19:25.482Z,16.60
2022-08-28T06:21:55.097Z,15.67
2022-08-28T06:24:22.539Z,18.15
2022-08-28T06:26:49.567Z,17.88
2022-08-28T06:29:18.598Z,18.60
2022-08-28T06:31:48.546Z,17.15
2022-08-28T06:34:15.788Z,16.83
2022-08-28T06:36:43.096Z,16.48
2022-08-28T06:39:11.029Z,17.92
2022-08-28T06:41:43.288Z,16.95
2022-08-28T06:44:12.749Z,17.02
2022-08-28T06:46:39.946Z,16.13
2022-08-28T06:49:07.746Z,16.95
2022-08-28T06:51:35.394Z,16.42
2022-08-28T06:54:02.520Z,17.25
2022-08-28T06:56:30.003Z,16.52
2022-08-28T06:58:57.711Z,16.15
2022-08-28T07:01:29.787Z,16.60
2022-08-28T07:03:59.686Z,14.63
2022-08-28T07:06:27.198Z,14.23
2022-08-28T07:08:54.284Z,17.05
2022-08-28T07:11:26.354Z,16.27
2022-08-28T07:13:53.799Z,15.70
2022-08-28T07:16:22.724Z,16.02
2022-08-28T07:18:49.743Z,16.08
2022-08-28T07:21:16.856Z,15.70
2022-08-28T07:23:44.593Z,15.27
2022-08-28T07:26:14.483Z,16.30
2022-08-28T07:28:41.547Z,15.13
2022-08-28T07:31:11.184Z,16.33
2022-08-28T07:33:39.747Z,16.05
2022-08-28T07:36:15.593Z,15.65
2022-08-28T07:38:43.133Z,15.63
2022-08-28T07:41:15.397Z,16.02
2022-08-28T07:44:01.391Z,16.55
2022-08-28T07:46:29.441Z,15.50
2022-08-28T07:48:58.896Z,15.77
2022-08-28T07:51:27.203Z,14.75
2022-08-28T07:53:59.371Z,17.25
2022-08-28T07:56:28.010Z,15.25
2022-08-28T07:58:56.666Z,14.20
2022-08-28T08:01:24.179Z,10.48
2022-08-28T08:03:51.646Z,9.88
2022-08-28T08:06:33.760Z,10.00
2022-08-28T08:09:02.138Z,13.32
2022-08-28T08:11:32.283Z,11.50
2022-08-28T08:14:04.817Z,12.00
2022-08-28T08:16:34.879Z,11.15
2022-08-28T08:19:02.059Z,10.43
2022-08-28T08:21:30.409Z,10.20
2022-08-28T08:23:58.032Z,10.63
2022-08-28T08:26:26.300Z,11.95
2022-08-28T08:28:53.397Z,12.53
2022-08-28T08:31:26.628Z,10.07
2022-08-28T08:33:59.171Z,9.02
2022-08-28T08:36:26.706Z,9.00
2022-08-28T08:38:59.421Z,9.35
2022-08-28T08:41:48.398Z,9.50
2022-08-28T08:44:23.576Z,9.10
2022-08-28T08:47:13.203Z,9.18
2022-08-28T08:50:08.867Z,10.18
2022-08-28T08:53:02.839Z,8.30
2022-08-28T08:55:40.584Z,8.90
2022-08-28T08:58:29.399Z,10.25
2022-08-28T09:01:23.514Z,8.05
2022-08-28T09:03:55.880Z,6.78
2022-08-28T09:06:43.873Z,7.25
2022-08-28T09:09:33.911Z,7.37
2022-08-28T09:12:03.931Z,7.72
2022-08-28T09:14:38.242Z,7.28
2022-08-28T09:17:06.031Z,7.05
2022-08-28T09:19:33.081Z,6.38
2022-08-28T09:22:00.261Z,7.25
2022-08-28T09:24:29.670Z,7.72
2022-08-28T09:27:00.495Z,6.18
2022-08-28T09:29:38.793Z,7.05
2022-08-28T09:32:27.750Z,6.70
2022-08-28T09:35:03.366Z,6.78
2022-08-28T09:37:32.981Z,9.40
2022-08-28T09:40:19.050Z,8.55
2022-08-28T09:43:30.285Z,7.28
2022-08-28T09:49:39.124Z,7.65
2022-08-28T09:59:50.105Z,10.00
2022-08-28T10:02:52.691Z,10.32
2022-08-28T10:05:46.822Z,10.40
2022-08-28T10:21:22.270Z,10.15
2022-08-28T10:24:29.131Z,10.40
2022-08-28T10:27:25.834Z,10.90
2022-08-28T10:30:20.933Z,12.13
2022-08-28T11:21:39.615Z,14.65
2022-08-28T11:24:25.955Z,12.10
2022-08-28T11:27:17.188Z,13.32
2022-08-28T11:30:11.529Z,11.90
2022-08-28T11:32:51.904Z,11.27
2022-08-28T11:35:31.907Z,12.10
2022-08-28T11:37:58.901Z,11.40
2022-08-28T11:40:31.966Z,10.23
2022-08-28T11:43:21.132Z,10.68
2022-08-28T11:45:50.888Z,11.40
2022-08-28T11:51:45.228Z,11.52
2022-08-28T11:54:52.072Z,11.85
2022-08-28T11:57:45.239Z,10.13
2022-08-28T12:00:25.264Z,9.98
2022-08-28T12:03:10.199Z,8.93
2022-08-28T12:05:49.928Z,9.68
2022-08-28T12:08:45.036Z,8.82
2022-08-28T12:17:32.675Z,6.95
2022-08-28T12:20:10.038Z,6.22
2022-08-28T12:22:47.511Z,6.40
2022-08-28T12:25:44.331Z,6.45
2022-08-28T12:28:26.248Z,5.55
2022-08-28T12:31:13.612Z,6.60
2022-08-28T12:33:48.344Z,5.72
2022-08-28T12:36:16.816Z,5.95
2022-08-28T12:51:49.763Z,4.32
2022-08-28T12:54:17.804Z,4.30
2022-08-28T12:56:44.841Z,4.43
2022-08-28T12:59:34.634Z,3.92
2022-08-28T13:02:10.591Z,4.03
2022-08-28T13:05:05.083Z,4.18
2022-08-28T13:07:59.425Z,4.30
2022-08-28T13:10:34.395Z,4.07
2022-08-28T13:24:29.290Z,3.50
2022-08-28T13:27:20.971Z,3.83
2022-08-28T13:30:09.164Z,3.42
2022-08-28T13:32:38.000Z,3.92
2022-08-28T13:35:23.631Z,3.97
2022-08-28T13:37:52.490Z,3.90
2022-08-28T13:43:13.659Z,5.28
2022-08-28T13:45:44.861Z,5.45
2022-08-28T13:48:13.464Z,5.85
2022-08-28T13:50:42.070Z,5.80
2022-08-28T13:53:12.205Z,5.90
2022-08-28T13:55:39.628Z,7.45
2022-08-28T13:58:06.955Z,6.78
2022-08-28T14:00:36.690Z,8.73
2022-08-28T14:03:22.354Z,6.97
2022-08-28T14:05:49.404Z,7.80
2022-08-28T14:08:16.426Z,9.13
2022-08-28T14:10:43.449Z,6.90
2022-08-28T14:13:10.522Z,5.97
2022-08-28T14:15:37.513Z,8.23
2022-08-28T14:18:05.545Z,5.18
2022-08-28T14:20:32.845Z,5.57
2022-08-28T14:23:00.197Z,7.35
2022-08-28T14:25:27.550Z,12.05
2022-08-28T14:27:56.088Z,17.80
2022-08-28T14:30:23.344Z,9.00
2022-08-28T14:32:50.387Z,8.88
2022-08-28T14:35:17.408Z,5.32
2022-08-28T14:37:44.585Z,3.97
2022-08-28T14:40:12.848Z,3.78
2022-08-28T14:42:41.951Z,3.58
2022-08-28T14:45:09.372Z,5.03
2022-08-28T14:47:39.284Z,3.70
2022-08-28T14:50:06.866Z,3.47
2022-08-28T14:52:33.981Z,4.10
2022-08-28T14:55:00.911Z,4.35
2022-08-28T14:57:27.936Z,12.60
2022-08-28T14:59:55.047Z,45.75
2022-08-28T15:02:21.974Z,6.68
2022-08-28T15:04:48.940Z,11.27
2022-08-28T15:07:15.971Z,8.52
2022-08-28T15:09:43.085Z,7.63
2022-08-28T15:12:12.862Z,5.53
2022-08-28T15:14:39.847Z,7.40
2022-08-28T15:17:07.502Z,8.70
2022-08-28T15:19:34.480Z,13.13
2022-08-28T15:22:02.198Z,4.47
2022-08-28T15:24:31.573Z,3.92
2022-08-28T15:26:59.827Z,12.27
2022-08-28T15:29:28.239Z,9.50
2022-08-28T15:31:55.540Z,3.60
2022-08-28T15:34:24.071Z,4.03
2022-08-28T15:36:55.645Z,4.45
2022-08-28T15:39:42.798Z,3.60
2022-08-28T15:42:10.454Z,3.78
2022-08-28T15:44:37.625Z,3.85
2022-08-28T15:47:05.099Z,3.65
2022-08-28T15:49:33.002Z,2.90
2022-08-28T15:52:06.651Z,4.43
2022-08-28T15:54:33.598Z,3.00
2022-08-28T15:57:00.616Z,2.45
2022-08-28T15:59:38.053Z,3.28
2022-08-28T16:02:14.685Z,2.65
2022-08-28T16:04:41.742Z,2.63
2022-08-28T16:07:08.733Z,1.95
2022-08-28T16:09:35.811Z,2.05
2022-08-28T16:12:02.885Z,8.00
2022-08-28T16:14:32.879Z,1.90
2022-08-28T16:17:00.199Z,2.17
2022-08-28T16:19:33.124Z,1.10
2022-08-28T16:22:00.466Z,0.93
2022-08-28T16:24:27.446Z,1.40
2022-08-28T16:26:54.368Z,0.60
2022-08-28T16:29:21.361Z,0.50
2022-08-28T16:31:51.579Z,2.22
2022-08-28T16:34:19.427Z,0.40
2022-08-28T16:36:48.340Z,1.42
2022-08-28T16:39:15.507Z,0.53
2022-08-28T16:41:43.277Z,2.13
2022-08-28T16:44:10.283Z,0.30
2022-08-28T16:46:37.407Z,0.30
2022-08-28T16:49:04.392Z,0.20
2022-08-28T16:51:31.747Z,0.30
2022-08-28T16:53:58.815Z,0.47
2022-08-28T16:56:26.732Z,0.30
2022-08-28T16:58:53.831Z,0.40
2022-08-28T17:01:24.252Z,0.40
2022-08-28T17:03:53.073Z,0.40
2022-08-28T17:06:23.577Z,0.80
2022-08-28T17:08:55.898Z,0.50
2022-08-28T17:11:24.649Z,0.65
2022-08-28T17:13:51.555Z,0.82
2022-08-28T17:16:18.763Z,0.88
2022-08-28T17:18:48.135Z,0.50
2022-08-28T17:21:37.771Z,0.80
2022-08-28T17:24:05.072Z,0.75
2022-08-28T17:26:32.011Z,0.63
2022-08-28T17:32:46.799Z,0.57
2022-08-28T17:35:14.985Z,0.40
2022-08-28T17:37:42.071Z,0.50
2022-08-28T17:40:13.234Z,0.57
2022-08-28T17:42:40.703Z,0.65
2022-08-28T17:45:08.615Z,0.60
2022-08-28T17:47:35.601Z,0.50
2022-08-28T17:50:02.978Z,0.70
2022-08-28T17:52:30.262Z,1.02
2022-08-28T17:54:57.898Z,1.23
2022-08-28T17:57:25.126Z,1.15
2022-08-28T17:59:52.312Z,1.27
2022-08-28T18:02:19.500Z,1.70
2022-08-28T18:04:46.960Z,1.52
2022-08-28T18:07:14.123Z,1.13
2022-08-28T18:09:41.393Z,1.48
2022-08-28T18:12:12.746Z,1.50
2022-08-28T18:14:39.980Z,1.67
2022-08-28T18:17:07.099Z,1.65
2022-08-28T18:19:37.030Z,2.15
2022-08-28T18:22:04.101Z,1.80
2022-08-28T18:24:32.023Z,1.55
2022-08-28T18:26:59.165Z,1.40
2022-08-28T18:29:27.186Z,1.08
2022-08-28T18:31:54.467Z,1.20
2022-08-28T18:34:21.399Z,1.50
2022-08-28T18:36:49.139Z,1.45
2022-08-28T18:39:16.613Z,1.38
2022-08-28T18:41:56.343Z,2.20
2022-08-28T18:44:24.351Z,1.92
2022-08-28T18:46:51.820Z,2.23
2022-08-28T18:49:19.038Z,2.58
2022-08-28T18:51:46.040Z,2.95
2022-08-28T18:54:14.387Z,2.92
2022-08-28T18:56:44.006Z,3.17
2022-08-28T18:59:11.283Z,3.38
2022-08-28T19:01:38.415Z,4.22
2022-08-28T19:04:06.270Z,4.05
2022-08-28T19:06:33.702Z,3.08
2022-08-28T19:09:00.918Z,2.95
2022-08-28T19:11:29.531Z,3.30
2022-08-28T19:13:56.627Z,2.90
2022-08-28T19:16:23.775Z,3.35
2022-08-28T19:18:53.052Z,2.67
2022-08-28T19:21:20.560Z,3.25
2022-08-28T19:23:55.239Z,2.92
2022-08-28T19:26:26.341Z,2.88
2022-08-28T19:28:53.681Z,3.10
2022-08-28T19:31:20.977Z,2.35
2022-08-28T19:33:48.134Z,2.63
2022-08-28T19:36:15.162Z,2.55
2022-08-28T19:38:42.147Z,2.55
2022-08-28T19:41:10.478Z,2.80
2022-08-28T19:43:44.252Z,3.13
2022-08-28T19:46:18.423Z,2.90
2022-08-28T19:48:50.515Z,3.15
2022-08-28T19:51:22.582Z,2.88
2022-08-28T19:53:57.186Z,2.40
2022-08-28T19:56:27.557Z,2.60
2022-08-28T19:58:55.341Z,2.50
2022-08-28T20:01:22.338Z,2.90
2022-08-28T20:03:49.427Z,2.40
2022-08-28T20:06:16.457Z,2.72
2022-08-28T20:08:43.430Z,2.45
2022-08-28T20:11:15.478Z,3.10
2022-08-28T20:13:42.497Z,2.40
2022-08-28T20:16:10.846Z,2.70
2022-08-28T20:18:37.890Z,2.45
2022-08-28T20:21:05.021Z,2.28
2022-08-28T20:23:31.960Z,2.50
2022-08-28T20:25:58.961Z,2.50
2022-08-28T20:28:25.886Z,2.17
2022-08-28T20:30:52.849Z,2.35
2022-08-28T20:33:20.911Z,2.17
2022-08-28T20:35:48.082Z,2.70
2022-08-28T20:38:15.273Z,2.10
2022-08-28T20:40:43.071Z,2.55
2022-08-28T20:43:10.064Z,3.10
2022-08-28T20:45:36.999Z,2.25
2022-08-28T20:48:04.058Z,2.50
2022-08-28T20:50:30.976Z,2.55
2022-08-28T20:52:58.025Z,2.28
2022-08-28T20:55:25.008Z,2.13
2022-08-28T20:57:52.557Z,2.00
2022-08-28T21:00:19.664Z,2.30
2022-08-28T21:02:47.006Z,2.25
2022-08-28T21:05:14.032Z,2.08
2022-08-28T21:07:41.197Z,1.90
2022-08-28T21:10:08.527Z,1.58
2022-08-28T21:12:36.814Z,1.80
2022-08-28T21:15:06.256Z,2.13
2022-08-28T21:17:33.390Z,1.90
2022-08-28T21:20:08.289Z,2.03
2022-08-28T21:22:36.004Z,2.50
2022-08-28T21:25:07.363Z,2.63
2022-08-28T21:27:34.469Z,2.35
2022-08-28T21:30:01.694Z,2.55
2022-08-28T21:32:28.935Z,2.60
2022-08-28T21:34:56.332Z,2.42
2022-08-28T21:37:23.417Z,3.17
2022-08-28T21:39:50.912Z,2.63
2022-08-28T21:42:18.128Z,2.63
2022-08-28T21:44:51.193Z,2.67
2022-08-28T21:47:19.141Z,2.85
2022-08-28T21:49:49.595Z,3.10
2022-08-28T21:52:18.693Z,3.05
2022-08-28T21:57:12.599Z,3.13
2022-08-28T21:59:39.572Z,2.90
2022-08-28T22:02:06.653Z,2.50
2022-08-28T22:04:33.952Z,2.10
2022-08-28T22:07:00.983Z,2.20
2022-08-28T22:09:27.982Z,3.03
2022-08-28T22:11:54.976Z,2.00
2022-08-28T22:14:25.299Z,2.85
2022-08-28T22:16:52.489Z,2.88
2022-08-28T22:19:19.647Z,2.83
2022-08-28T22:22:05.120Z,2.83
2022-08-28T22:24:32.177Z,2.28
2022-08-28T22:26:59.265Z,2.28
2022-08-28T22:29:26.314Z,2.38
2022-08-28T22:31:53.380Z,2.72
2022-08-28T22:34:20.451Z,2.80
2022-08-28T22:36:47.465Z,2.03
2022-08-28T22:39:14.512Z,2.60
2022-08-28T22:41:42.238Z,2.90
2022-08-28T22:44:10.067Z,3.42
2022-08-28T22:46:37.087Z,3.05
2022-08-28T22:49:04.425Z,2.50
2022-08-28T22:51:33.085Z,2.55
2022-08-28T22:54:00.035Z,2.55
2022-08-28T22:56:27.036Z,2.85
2022-08-28T22:58:54.632Z,2.90
2022-08-28T23:01:23.181Z,3.03
2022-08-28T23:03:50.392Z,2.85
2022-08-28T23:06:17.557Z,3.22
2022-08-28T23:08:44.564Z,2.75
2022-08-28T23:11:11.529Z,2.88
2022-08-28T23:13:38.558Z,2.53
2022-08-28T23:16:06.231Z,2.75
2022-08-28T23:18:57.555Z,3.17
2022-08-28T23:21:21.097Z,3.20
2022-08-28T23:23:48.126Z,3.15
2022-08-28T23:26:15.430Z,3.00
2022-08-28T23:28:42.677Z,3.47
2022-08-28T23:31:09.936Z,3.47
2022-08-28T23:33:37.086Z,3.38
2022-08-28T23:36:04.776Z,3.63
2022-08-28T23:38:34.737Z,3.50
2022-08-28T23:41:02.283Z,3.58
2022-08-28T23:43:29.842Z,3.60
2022-08-28T23:45:56.973Z,6.05
2022-08-28T23:48:25.070Z,5.78
2022-08-28T23:50:52.738Z,5.68
2022-08-28T23:53:19.687Z,6.97
2022-08-28T23:55:48.635Z,6.68
